LFPM 191730Z AUTO 02007KT 360V080 9999 FEW015 SCT024 BKN029 05/01 Q1009

Les locaux du Club
   
  L'Entrée du club Batiment 50  
   
  L'accueil et la zone opérations  
   
  La zone opérations  
   
  La zone Briefing  
   
  Le Club House  
   
  La parking avions et le hangard